createdAt,value
2023-01-20T04:58:27.260Z,3.34
2023-01-20T05:01:29.759Z,3.32
2023-01-20T05:04:32.000Z,3.52
2023-01-20T05:07:34.388Z,3.49
2023-01-20T05:10:36.481Z,3.49
2023-01-20T05:13:40.080Z,3.49
2023-01-20T05:16:42.874Z,3.44
2023-01-20T05:19:45.275Z,3.49
2023-01-20T05:22:47.813Z,3.37
2023-01-20T05:25:51.532Z,3.52
2023-01-20T05:28:53.715Z,3.59
2023-01-20T05:31:56.170Z,3.52
2023-01-20T05:34:58.344Z,3.50
2023-01-20T05:38:00.724Z,3.54
2023-01-20T05:41:04.490Z,3.64
2023-01-20T05:44:06.937Z,3.81
2023-01-20T05:47:09.323Z,3.76
2023-01-20T05:50:12.418Z,3.70
2023-01-20T05:53:14.890Z,3.66
2023-01-20T05:56:17.648Z,3.75
2023-01-20T05:59:19.884Z,3.84
2023-01-20T06:02:22.264Z,3.93
2023-01-20T06:05:25.058Z,3.95
2023-01-20T06:08:27.181Z,4.02
2023-01-20T06:11:29.572Z,4.05
2023-01-20T06:14:31.642Z,4.09
2023-01-20T06:17:34.118Z,3.94
2023-01-20T06:20:36.225Z,3.95
2023-01-20T06:23:38.719Z,3.95
2023-01-20T06:26:40.795Z,4.04
2023-01-20T06:29:43.170Z,3.94
2023-01-20T06:32:48.468Z,4.01
2023-01-20T06:35:54.610Z,4.04
2023-01-20T06:38:56.742Z,3.94
2023-01-20T06:42:00.186Z,3.96
2023-01-20T06:45:02.456Z,4.08
2023-01-20T06:48:04.968Z,4.14
2023-01-20T06:51:11.838Z,4.22
2023-01-20T06:54:14.181Z,4.15
2023-01-20T06:57:16.403Z,4.11
2023-01-20T07:00:19.272Z,4.13
2023-01-20T07:03:21.595Z,4.13
2023-01-20T07:06:39.664Z,4.18
2023-01-20T07:09:41.766Z,4.04
2023-01-20T07:12:44.135Z,4.08
2023-01-20T07:15:46.215Z,4.25
2023-01-20T07:18:54.191Z,4.27
2023-01-20T07:21:56.337Z,4.23
2023-01-20T07:24:58.636Z,4.30
2023-01-20T07:28:01.157Z,4.45
2023-01-20T07:31:06.078Z,4.51
2023-01-20T07:34:08.218Z,4.55
2023-01-20T07:37:10.567Z,4.56
2023-01-20T07:40:12.807Z,4.54
2023-01-20T07:43:15.181Z,4.52
2023-01-20T07:46:18.589Z,4.54
2023-01-20T07:49:21.220Z,4.46
2023-01-20T07:52:23.382Z,4.60
2023-01-20T07:55:26.117Z,4.63
2023-01-20T07:58:29.785Z,4.66
2023-01-20T08:01:33.132Z,4.58
2023-01-20T08:04:35.681Z,4.41
2023-01-20T08:07:37.894Z,4.62
2023-01-20T08:10:40.309Z,4.47
2023-01-20T08:13:43.325Z,4.40
2023-01-20T08:16:45.798Z,4.49
2023-01-20T08:19:48.181Z,4.64
2023-01-20T08:22:50.746Z,4.61
2023-01-20T08:26:00.200Z,4.50
2023-01-20T08:29:08.906Z,4.52
2023-01-20T08:32:11.055Z,4.73
2023-01-20T08:35:13.796Z,4.74
2023-01-20T08:38:16.194Z,4.63
2023-01-20T08:41:28.365Z,4.68
2023-01-20T08:44:30.819Z,4.69
2023-01-20T08:47:44.290Z,4.79
2023-01-20T08:50:46.431Z,4.74
2023-01-20T08:53:49.409Z,4.63
2023-01-20T08:56:53.121Z,4.62
2023-01-20T08:59:55.735Z,4.53
2023-01-20T09:02:57.824Z,4.69
2023-01-20T09:06:02.785Z,4.90
2023-01-20T09:09:05.197Z,4.87
2023-01-20T09:12:08.183Z,4.82
2023-01-20T09:15:11.123Z,4.84
2023-01-20T09:18:13.496Z,4.96
2023-01-20T09:21:15.614Z,5.07
2023-01-20T09:24:18.075Z,5.09
2023-01-20T09:27:20.243Z,5.11
2023-01-20T09:30:23.014Z,5.14
2023-01-20T09:33:26.095Z,5.12
2023-01-20T09:36:31.404Z,5.19
2023-01-20T09:39:52.486Z,5.28
2023-01-20T09:43:39.374Z,5.18
2023-01-20T09:47:22.016Z,5.19
2023-01-20T09:51:03.736Z,5.11
2023-01-20T09:54:15.323Z,5.16
2023-01-20T09:57:24.188Z,5.22
2023-01-20T10:00:30.002Z,5.18
2023-01-20T10:03:40.660Z,5.06
2023-01-20T10:06:46.956Z,5.02
2023-01-20T10:10:02.854Z,5.11
2023-01-20T10:13:19.539Z,5.06
2023-01-20T10:16:37.636Z,5.01
2023-01-20T10:19:50.200Z,5.12
2023-01-20T10:22:58.265Z,5.22
2023-01-20T10:26:18.729Z,5.22
2023-01-20T10:29:35.154Z,5.07
2023-01-20T10:32:40.571Z,5.09
2023-01-20T10:35:53.359Z,5.25
2023-01-20T10:39:28.318Z,5.30
2023-01-20T10:42:30.712Z,5.50
2023-01-20T10:45:35.651Z,5.62
2023-01-20T10:48:48.601Z,5.53
2023-01-20T10:52:02.665Z,5.55
2023-01-20T10:55:11.724Z,5.45
2023-01-20T10:58:23.201Z,5.63
2023-01-20T11:01:25.742Z,5.77
2023-01-20T11:04:28.334Z,5.66
2023-01-20T11:07:33.240Z,5.54
2023-01-20T11:10:35.362Z,5.65
2023-01-20T11:13:38.708Z,5.57
2023-01-20T11:16:44.841Z,5.55
2023-01-20T11:19:56.764Z,5.69
2023-01-20T11:22:58.948Z,5.68
2023-01-20T11:26:28.380Z,5.62
2023-01-20T11:29:35.330Z,5.43
2023-01-20T11:32:42.771Z,5.40
2023-01-20T11:36:01.484Z,5.54
2023-01-20T11:39:08.610Z,5.47
2023-01-20T11:42:20.914Z,5.33
2023-01-20T11:45:26.376Z,5.22
2023-01-20T11:48:28.564Z,5.26
2023-01-20T11:51:31.159Z,5.19
2023-01-20T11:54:33.250Z,5.18
2023-01-20T11:57:37.855Z,5.13
2023-01-20T12:00:44.259Z,5.14
2023-01-20T12:03:46.769Z,5.12
2023-01-20T12:06:55.861Z,4.99
2023-01-20T12:10:04.551Z,4.80
2023-01-20T12:13:30.038Z,4.82
2023-01-20T12:16:33.262Z,4.65
2023-01-20T12:19:47.772Z,4.62
2023-01-20T12:23:22.149Z,4.59
2023-01-20T12:26:25.708Z,4.53
2023-01-20T12:29:44.734Z,4.52
2023-01-20T12:32:46.900Z,4.56
2023-01-20T12:36:27.541Z,4.59
2023-01-20T12:39:46.093Z,4.70
2023-01-20T12:43:19.562Z,4.58
2023-01-20T12:46:43.769Z,4.47
2023-01-20T12:50:03.061Z,4.44
2023-01-20T12:53:20.190Z,4.31
2023-01-20T12:56:33.456Z,4.35
2023-01-20T12:59:50.754Z,4.42
2023-01-20T13:02:58.933Z,4.32
2023-01-20T13:06:01.203Z,4.18
2023-01-20T13:09:06.606Z,4.27
2023-01-20T13:12:14.991Z,4.20
2023-01-20T13:15:42.706Z,4.22
2023-01-20T13:19:32.268Z,4.24
2023-01-20T13:22:35.765Z,4.10
2023-01-20T13:25:40.671Z,3.83
2023-01-20T13:28:57.495Z,3.72
2023-01-20T13:31:59.897Z,3.63
2023-01-20T13:35:25.347Z,3.52
2023-01-20T13:38:33.085Z,3.39
2023-01-20T13:41:50.298Z,3.43
2023-01-20T13:45:11.321Z,3.43
2023-01-20T13:48:13.624Z,3.32
2023-01-20T13:51:15.666Z,3.39
2023-01-20T13:54:32.768Z,3.50
2023-01-20T13:57:35.849Z,3.60
2023-01-20T14:00:38.254Z,3.65
2023-01-20T14:03:41.721Z,3.61
2023-01-20T14:06:49.064Z,3.42
2023-01-20T14:10:01.762Z,3.40
2023-01-20T14:13:09.452Z,3.34
2023-01-20T14:16:39.473Z,3.51
2023-01-20T14:19:47.954Z,3.48
2023-01-20T14:22:50.417Z,3.49
2023-01-20T14:26:01.366Z,3.28
2023-01-20T14:29:03.752Z,3.25
2023-01-20T14:32:26.438Z,3.17
2023-01-20T14:35:32.194Z,3.20
2023-01-20T14:38:38.301Z,3.30
2023-01-20T14:41:57.441Z,3.20
2023-01-20T14:44:59.586Z,3.13
2023-01-20T14:48:02.660Z,3.08
2023-01-20T14:51:06.087Z,2.84
2023-01-20T14:54:33.898Z,2.77
2023-01-20T14:57:45.759Z,2.63
2023-01-20T15:00:54.959Z,2.53
2023-01-20T15:03:59.378Z,2.64
2023-01-20T15:07:01.964Z,2.55
2023-01-20T15:10:09.951Z,2.44
2023-01-20T15:13:26.800Z,2.48
2023-01-20T15:16:31.880Z,2.38
2023-01-20T15:19:35.612Z,2.55
2023-01-20T15:22:42.390Z,2.28
2023-01-20T15:25:44.859Z,2.26
2023-01-20T15:28:47.006Z,2.29
2023-01-20T15:31:51.147Z,2.32
2023-01-20T15:34:53.467Z,2.33
2023-01-20T15:37:55.859Z,2.26
2023-01-20T15:40:57.986Z,2.19
2023-01-20T15:44:00.402Z,2.11
2023-01-20T15:47:05.822Z,2.10
2023-01-20T15:50:18.594Z,1.96
2023-01-20T15:53:20.790Z,2.09
2023-01-20T15:56:26.549Z,2.05
2023-01-20T15:59:30.129Z,1.96
2023-01-20T16:02:32.661Z,2.05
